createdAt,value
2019-04-27T00:00:15.655Z,27.15
2019-04-27T00:02:51.069Z,24.72
2019-04-27T00:05:32.188Z,27.82
2019-04-27T00:08:03.675Z,29.35
2019-04-27T00:10:39.569Z,21.35
2019-04-27T00:13:12.933Z,20.60
2019-04-27T00:15:49.532Z,28.83
2019-04-27T00:18:24.096Z,25.32
2019-04-27T00:20:58.994Z,28.55
2019-04-27T00:23:33.987Z,34.30
2019-04-27T00:26:07.038Z,31.05
2019-04-27T00:28:39.691Z,23.12
2019-04-27T00:31:13.832Z,28.27
2019-04-27T00:33:47.911Z,22.17
2019-04-27T00:36:23.251Z,25.45
2019-04-27T00:38:57.790Z,21.90
2019-04-27T00:41:33.901Z,26.95
2019-04-27T00:44:06.564Z,30.88
2019-04-27T00:46:39.717Z,30.15
2019-04-27T00:49:15.895Z,29.23
2019-04-27T00:51:48.961Z,30.82
2019-04-27T00:54:21.613Z,32.85
2019-04-27T00:56:55.269Z,34.75
2019-04-27T00:59:30.174Z,34.98
2019-04-27T01:02:04.884Z,30.95
2019-04-27T01:04:37.516Z,29.92
2019-04-27T01:07:10.826Z,30.35
2019-04-27T01:09:42.934Z,33.80
2019-04-27T01:12:16.927Z,33.73
2019-04-27T01:14:49.107Z,34.95
2019-04-27T01:17:22.088Z,32.33
2019-04-27T01:19:59.557Z,33.05
2019-04-27T01:22:32.931Z,30.37
2019-04-27T01:25:08.792Z,30.75
2019-04-27T01:27:42.901Z,39.27
2019-04-27T01:30:20.585Z,37.08
2019-04-27T01:32:52.665Z,33.70
2019-04-27T01:35:26.013Z,31.50
2019-04-27T01:37:59.034Z,39.18
2019-04-27T01:40:33.417Z,33.20
2019-04-27T01:43:05.551Z,29.90
2019-04-27T01:45:39.208Z,31.30
2019-04-27T01:48:23.072Z,32.55
2019-04-27T01:50:45.276Z,30.15
2019-04-27T01:53:19.998Z,30.97
2019-04-27T01:55:54.058Z,34.33
2019-04-27T01:58:26.407Z,31.33
2019-04-27T02:01:01.862Z,28.55
2019-04-27T02:03:38.677Z,31.90
2019-04-27T02:06:16.268Z,28.10
2019-04-27T02:08:49.339Z,31.20
2019-04-27T02:11:24.084Z,32.67
2019-04-27T02:14:06.187Z,27.05
2019-04-27T02:16:50.236Z,34.27
2019-04-27T02:19:29.295Z,29.42
2019-04-27T02:22:02.753Z,29.02
2019-04-27T02:24:45.362Z,30.10
2019-04-27T02:27:21.232Z,28.40
2019-04-27T02:29:55.392Z,28.77
2019-04-27T02:32:34.943Z,35.78
2019-04-27T02:35:10.474Z,28.10
2019-04-27T02:37:45.734Z,32.10
2019-04-27T02:40:20.874Z,30.77
2019-04-27T02:42:54.557Z,28.45
2019-04-27T02:45:30.128Z,26.42
2019-04-27T02:48:03.161Z,25.88
2019-04-27T02:50:42.596Z,26.50
2019-04-27T02:53:23.050Z,25.62
2019-04-27T02:55:59.336Z,37.55
2019-04-27T02:58:33.090Z,64.60
2019-04-27T03:01:05.365Z,45.17
2019-04-27T03:03:37.686Z,32.42
2019-04-27T03:06:10.214Z,34.50
2019-04-27T03:08:42.945Z,37.73
2019-04-27T03:11:17.405Z,34.92
2019-04-27T03:13:59.891Z,37.33
2019-04-27T03:16:32.910Z,37.65
2019-04-27T03:19:17.968Z,36.13
2019-04-27T03:21:49.553Z,35.00
2019-04-27T03:24:25.785Z,35.55
2019-04-27T03:27:00.479Z,32.20
2019-04-27T03:29:33.984Z,32.05
2019-04-27T03:32:12.380Z,31.20
2019-04-27T03:34:43.295Z,36.42
2019-04-27T03:37:16.526Z,29.05
2019-04-27T03:39:50.336Z,33.88
2019-04-27T03:45:20.397Z,32.48
2019-04-27T03:48:00.746Z,31.85
2019-04-27T03:50:50.715Z,32.83
2019-04-27T03:53:29.782Z,34.45
2019-04-27T03:56:10.293Z,32.73
2019-04-27T03:58:52.747Z,33.00
2019-04-27T04:01:35.600Z,33.83
2019-04-27T04:04:14.360Z,32.38
2019-04-27T04:06:49.548Z,32.88
2019-04-27T04:09:24.069Z,33.40
2019-04-27T04:12:02.275Z,34.40
2019-04-27T04:14:42.517Z,32.63
2019-04-27T04:17:13.237Z,30.08
2019-04-27T04:19:54.281Z,30.80
2019-04-27T04:22:20.503Z,30.35
2019-04-27T04:24:53.401Z,28.75
2019-04-27T04:27:26.918Z,26.55
2019-04-27T04:30:00.598Z,26.42
2019-04-27T04:32:49.838Z,27.00
2019-04-27T04:35:27.022Z,27.48
2019-04-27T04:38:15.268Z,28.87
2019-04-27T04:40:50.361Z,29.48
2019-04-27T04:43:29.433Z,28.95
2019-04-27T04:51:30.317Z,27.32
2019-04-27T04:54:03.153Z,26.60
2019-04-27T04:56:39.285Z,25.55
2019-04-27T04:59:15.414Z,25.48
2019-04-27T05:01:51.691Z,23.92
2019-04-27T05:04:29.042Z,23.73
2019-04-27T05:07:04.850Z,24.75
2019-04-27T05:09:39.871Z,24.63
2019-04-27T05:12:15.959Z,22.95
2019-04-27T05:14:52.484Z,24.15
2019-04-27T05:17:26.551Z,22.55
2019-04-27T05:19:59.572Z,25.02
2019-04-27T05:22:32.010Z,23.05
2019-04-27T05:25:05.950Z,26.12
2019-04-27T05:27:40.763Z,24.37
2019-04-27T06:01:29.585Z,21.65
2019-04-27T06:04:02.038Z,18.62
2019-04-27T06:06:39.871Z,20.70
2019-04-27T06:09:14.276Z,21.50
2019-04-27T06:11:50.617Z,21.25
2019-04-27T06:14:30.162Z,20.00
2019-04-27T06:17:02.470Z,19.82
2019-04-27T06:19:34.904Z,27.45
2019-04-27T06:22:09.693Z,23.10
2019-04-27T06:24:41.849Z,21.30
2019-04-27T06:27:14.401Z,19.02
2019-04-27T06:29:49.072Z,19.25
2019-04-27T06:32:30.006Z,20.77
2019-04-27T06:35:02.506Z,19.57
2019-04-27T06:37:35.712Z,21.45
2019-04-27T06:40:09.934Z,19.17
2019-04-27T06:42:45.173Z,19.73
2019-04-27T06:45:17.377Z,18.60
2019-04-27T06:47:52.069Z,19.65
2019-04-27T06:50:26.512Z,20.50
2019-04-27T06:53:00.518Z,20.52
2019-04-27T06:55:33.074Z,21.85
2019-04-27T06:58:05.559Z,19.35
2019-04-27T07:00:39.518Z,20.85
2019-04-27T07:03:18.885Z,15.80
2019-04-27T07:05:55.514Z,17.50
2019-04-27T07:08:30.864Z,17.23
2019-04-27T07:11:03.692Z,15.88
2019-04-27T07:13:38.923Z,16.62
2019-04-27T07:16:12.490Z,16.70
2019-04-27T07:18:46.225Z,15.88
2019-04-27T07:21:24.608Z,16.35
2019-04-27T07:23:54.645Z,16.45
2019-04-27T07:26:30.344Z,15.50
2019-04-27T07:29:03.394Z,14.55
2019-04-27T07:31:36.573Z,15.20
2019-04-27T07:34:10.042Z,14.40
2019-04-27T07:36:42.351Z,14.70
2019-04-27T07:39:21.919Z,14.85
2019-04-27T07:41:54.734Z,18.12
2019-04-27T07:44:29.664Z,14.68
2019-04-27T07:47:03.196Z,14.43
2019-04-27T07:49:36.302Z,14.63
2019-04-27T07:52:09.542Z,14.58
2019-04-27T07:54:42.047Z,15.43
2019-04-27T07:57:14.514Z,14.28
2019-04-27T07:59:46.832Z,14.25
2019-04-27T08:02:19.144Z,15.80
2019-04-27T08:04:51.693Z,17.05
2019-04-27T08:07:23.384Z,16.17
2019-04-27T08:09:56.164Z,12.93
2019-04-27T08:12:31.549Z,17.17
2019-04-27T08:15:08.951Z,16.35
2019-04-27T08:17:42.963Z,16.57
2019-04-27T08:20:14.776Z,14.98
2019-04-27T08:22:49.748Z,15.80
2019-04-27T08:25:25.898Z,15.25
2019-04-27T08:28:00.325Z,15.48
2019-04-27T08:30:40.539Z,15.78
2019-04-27T08:33:13.959Z,17.98
2019-04-27T08:35:46.728Z,16.10
2019-04-27T08:38:20.680Z,17.32
2019-04-27T08:40:54.401Z,18.45
2019-04-27T08:43:28.988Z,18.25
2019-04-27T08:46:01.009Z,18.77
2019-04-27T08:48:36.861Z,15.65
2019-04-27T08:51:10.213Z,17.00
2019-04-27T08:53:43.299Z,15.98
2019-04-27T08:56:16.123Z,15.75
2019-04-27T08:58:51.773Z,14.98
2019-04-27T09:01:24.836Z,16.27
2019-04-27T09:03:59.281Z,14.13
2019-04-27T09:06:31.763Z,15.05
2019-04-27T09:09:05.766Z,17.10
2019-04-27T09:11:40.082Z,18.48
2019-04-27T09:14:19.849Z,16.95
2019-04-27T09:17:02.258Z,15.93
2019-04-27T09:19:34.127Z,13.58
2019-04-27T09:22:15.818Z,14.00
2019-04-27T09:24:41.336Z,14.05
2019-04-27T09:27:17.120Z,15.98
2019-04-27T09:29:49.987Z,16.70
2019-04-27T09:32:22.499Z,15.83
2019-04-27T09:34:56.938Z,15.70
2019-04-27T09:37:29.783Z,16.97
2019-04-27T09:40:01.937Z,17.10
2019-04-27T09:42:36.248Z,13.58
2019-04-27T09:45:11.482Z,17.67
2019-04-27T09:47:46.865Z,13.48
2019-04-27T09:50:19.196Z,16.95
2019-04-27T09:52:51.238Z,17.70
2019-04-27T09:55:23.798Z,15.23
2019-04-27T09:57:57.664Z,19.32
2019-04-27T10:00:30.980Z,16.15
2019-04-27T10:03:02.981Z,17.23
2019-04-27T10:05:36.925Z,17.00
2019-04-27T10:08:09.834Z,20.45
2019-04-27T10:10:43.321Z,17.12
2019-04-27T10:13:16.933Z,17.50
2019-04-27T10:15:49.065Z,15.80
2019-04-27T10:18:22.626Z,18.10
2019-04-27T10:20:59.854Z,14.10
2019-04-27T10:23:28.770Z,15.32
2019-04-27T10:26:01.148Z,13.78
2019-04-27T10:28:35.419Z,16.85
2019-04-27T10:31:07.591Z,14.03
2019-04-27T10:33:40.306Z,14.55
2019-04-27T10:36:14.148Z,14.05
2019-04-27T10:38:47.894Z,15.18
2019-04-27T10:41:20.591Z,13.80
2019-04-27T10:43:53.579Z,13.50
2019-04-27T10:46:26.138Z,15.23
2019-04-27T10:49:00.298Z,14.68
2019-04-27T10:51:33.623Z,14.58
2019-04-27T10:54:10.504Z,16.77
2019-04-27T10:56:45.944Z,15.95
2019-04-27T10:59:17.982Z,15.08
2019-04-27T11:01:50.781Z,14.13
2019-04-27T11:04:25.952Z,19.67
2019-04-27T11:06:58.879Z,19.10
2019-04-27T11:09:32.079Z,15.60
2019-04-27T11:12:07.381Z,18.10
2019-04-27T11:14:42.020Z,18.30
2019-04-27T11:20:12.909Z,16.87
2019-04-27T11:22:46.728Z,15.63
2019-04-27T11:25:20.314Z,15.78
2019-04-27T11:27:52.127Z,14.07
2019-04-27T11:30:26.917Z,15.90
2019-04-27T11:32:59.423Z,15.50
2019-04-27T11:35:35.754Z,15.35
2019-04-27T11:38:07.949Z,16.12
2019-04-27T11:40:40.345Z,17.82
2019-04-27T11:43:13.801Z,18.17
2019-04-27T11:45:46.211Z,17.82
2019-04-27T11:48:21.336Z,16.52
2019-04-27T11:50:53.701Z,16.05
2019-04-27T11:53:26.335Z,18.57
2019-04-27T11:55:59.267Z,16.67
2019-04-27T11:58:34.948Z,17.82
2019-04-27T12:01:08.924Z,18.62
2019-04-27T12:03:41.462Z,18.80
2019-04-27T12:06:15.824Z,17.37
2019-04-27T12:08:47.803Z,15.65
2019-04-27T12:11:21.130Z,16.75
2019-04-27T12:13:53.656Z,16.00
2019-04-27T12:16:26.321Z,15.98
2019-04-27T12:18:59.923Z,18.92
2019-04-27T12:21:33.934Z,16.55
2019-04-27T12:24:08.046Z,16.85
2019-04-27T12:26:43.147Z,18.87
2019-04-27T12:29:16.993Z,18.90
2019-04-27T12:31:49.769Z,16.25
2019-04-27T12:34:27.877Z,16.40
2019-04-27T12:37:07.359Z,15.48
2019-04-27T12:39:40.138Z,17.52
2019-04-27T12:42:13.840Z,16.57
2019-04-27T12:44:46.332Z,15.25
2019-04-27T12:47:22.402Z,18.40
2019-04-27T12:49:57.523Z,16.10
2019-04-27T12:52:31.080Z,19.12
2019-04-27T12:55:07.725Z,18.25
2019-04-27T12:57:43.661Z,16.97
2019-04-27T13:00:19.394Z,17.30
2019-04-27T13:02:51.882Z,18.45
2019-04-27T13:05:25.826Z,15.10
2019-04-27T13:07:58.270Z,17.07
2019-04-27T13:10:31.397Z,16.95
2019-04-27T13:13:06.212Z,17.20
2019-04-27T13:15:40.517Z,19.12
2019-04-27T13:18:16.716Z,19.02
2019-04-27T13:21:01.622Z,17.62
2019-04-27T13:23:34.309Z,16.07
2019-04-27T13:26:11.399Z,18.45
2019-04-27T13:28:56.019Z,16.52
2019-04-27T13:31:40.557Z,17.90
2019-04-27T13:34:13.155Z,19.60
2019-04-27T13:36:48.066Z,19.25
2019-04-27T13:39:33.239Z,18.57
2019-04-27T13:42:18.616Z,17.57
2019-04-27T13:44:55.727Z,17.92
2019-04-27T13:47:32.803Z,19.77
2019-04-27T13:50:21.858Z,18.23
2019-04-27T13:53:09.738Z,17.02
2019-04-27T13:55:42.456Z,16.40
2019-04-27T13:58:21.567Z,16.37
2019-04-27T14:01:02.469Z,15.43
2019-04-27T14:03:37.297Z,16.40
2019-04-27T14:06:09.662Z,16.20
2019-04-27T14:08:49.623Z,16.73
2019-04-27T14:11:25.566Z,18.20
2019-04-27T14:14:07.624Z,14.35
2019-04-27T14:16:43.677Z,17.40
2019-04-27T14:19:18.945Z,15.18
2019-04-27T14:22:04.354Z,18.02
2019-04-27T14:24:49.615Z,16.10
2019-04-27T14:27:27.819Z,16.35
2019-04-27T14:30:00.127Z,20.37
2019-04-27T14:32:33.579Z,18.05
2019-04-27T14:35:08.687Z,15.95
2019-04-27T14:37:42.842Z,16.15
2019-04-27T14:40:16.241Z,16.07
2019-04-27T14:42:50.171Z,19.48
2019-04-27T14:45:23.183Z,15.98
2019-04-27T14:47:55.315Z,17.32
2019-04-27T14:50:29.088Z,16.60
2019-04-27T14:53:01.482Z,16.57
2019-04-27T15:02:04.783Z,19.12
2019-04-27T15:04:39.758Z,18.98
2019-04-27T15:07:11.523Z,18.67
2019-04-27T15:09:54.453Z,18.45
2019-04-27T15:12:30.795Z,20.92
2019-04-27T15:15:01.479Z,22.55
2019-04-27T15:17:35.557Z,18.60
2019-04-27T15:20:11.008Z,18.67
2019-04-27T15:22:43.278Z,18.80
2019-04-27T15:25:16.870Z,18.12
2019-04-27T15:27:51.348Z,19.35
2019-04-27T15:30:25.868Z,20.55
2019-04-27T15:33:10.480Z,20.72
2019-04-27T15:38:15.353Z,18.05
2019-04-27T15:40:54.299Z,21.75
2019-04-27T15:43:27.342Z,20.55
2019-04-27T15:46:03.159Z,18.25
2019-04-27T15:48:38.504Z,20.45
2019-04-27T15:51:17.497Z,22.58
2019-04-27T15:53:50.920Z,20.08
2019-04-27T15:56:21.830Z,18.15
2019-04-27T15:59:00.017Z,16.80
2019-04-27T16:01:35.918Z,20.97
2019-04-27T16:04:07.602Z,18.57
2019-04-27T16:06:47.229Z,17.62
2019-04-27T16:09:23.896Z,18.82
2019-04-27T16:11:57.854Z,17.50
2019-04-27T16:14:28.925Z,16.95
2019-04-27T16:17:02.989Z,17.82
2019-04-27T16:19:42.660Z,18.73
2019-04-27T16:22:12.735Z,17.85
2019-04-27T16:24:49.427Z,18.37
2019-04-27T16:27:25.786Z,16.60
2019-04-27T16:30:04.785Z,18.37
2019-04-27T16:32:35.953Z,17.10
2019-04-27T16:35:13.735Z,19.12
2019-04-27T16:37:44.635Z,16.32
2019-04-27T16:40:24.538Z,17.80
2019-04-27T16:42:54.546Z,16.42
2019-04-27T16:45:28.103Z,18.17
2019-04-27T16:48:02.069Z,18.32
2019-04-27T16:50:36.340Z,17.27
2019-04-27T16:53:12.465Z,16.32
2019-04-27T16:55:44.930Z,16.85
2019-04-27T16:58:20.542Z,15.70
2019-04-27T17:00:54.042Z,20.32
2019-04-27T17:03:26.769Z,17.10
2019-04-27T17:06:04.063Z,15.80
2019-04-27T17:08:39.210Z,19.25
2019-04-27T17:11:13.762Z,17.37
2019-04-27T17:13:49.651Z,15.83
2019-04-27T17:16:31.214Z,20.88
2019-04-27T17:19:04.866Z,17.15
2019-04-27T17:21:38.613Z,17.17
2019-04-27T17:24:10.099Z,18.75
2019-04-27T17:26:43.709Z,17.02
2019-04-27T17:29:20.748Z,16.75
2019-04-27T17:31:56.724Z,16.85
2019-04-27T17:34:32.787Z,16.73
2019-04-27T17:37:08.941Z,19.52
2019-04-27T17:39:41.372Z,16.15
2019-04-27T17:42:22.767Z,17.42
2019-04-27T17:44:57.706Z,16.62
2019-04-27T17:47:38.850Z,16.57
2019-04-27T17:50:12.388Z,15.72
2019-04-27T17:52:49.762Z,18.52
2019-04-27T17:55:24.319Z,16.97
2019-04-27T17:58:00.485Z,18.50
2019-04-27T18:00:40.975Z,16.50
2019-04-27T18:03:08.362Z,15.15
2019-04-27T18:05:43.897Z,17.25
2019-04-27T18:08:18.403Z,15.83
2019-04-27T18:10:53.578Z,18.05
2019-04-27T18:13:28.839Z,17.32
2019-04-27T18:16:01.684Z,19.37
2019-04-27T18:18:35.703Z,17.00
2019-04-27T18:21:08.581Z,18.20
2019-04-27T18:23:45.371Z,17.55
2019-04-27T18:26:19.289Z,15.68
2019-04-27T18:28:54.132Z,15.28
2019-04-27T18:31:28.863Z,16.90
2019-04-27T18:34:01.677Z,16.62
2019-04-27T18:36:37.895Z,16.87
2019-04-27T18:39:13.622Z,17.07
2019-04-27T18:41:50.563Z,16.97
2019-04-27T18:44:23.983Z,16.93
2019-04-27T18:46:58.815Z,16.90
2019-04-27T18:49:34.120Z,17.45
2019-04-27T18:52:08.847Z,18.98
2019-04-27T18:54:42.484Z,17.42
2019-04-27T18:57:16.294Z,18.55
2019-04-27T18:59:49.484Z,16.75
2019-04-27T19:02:25.543Z,16.65
2019-04-27T19:04:59.386Z,16.37
2019-04-27T19:07:34.579Z,15.10
2019-04-27T19:10:12.069Z,15.38
2019-04-27T19:12:45.397Z,15.08
2019-04-27T19:15:21.780Z,16.57
2019-04-27T19:17:59.224Z,14.80
2019-04-27T19:20:32.729Z,16.73
2019-04-27T19:23:14.396Z,16.05
2019-04-27T19:28:23.333Z,15.48
2019-04-27T19:31:00.558Z,16.05
2019-04-27T19:33:33.786Z,16.15
2019-04-27T19:36:08.743Z,15.78
2019-04-27T19:38:40.713Z,15.25
2019-04-27T19:41:13.682Z,15.55
2019-04-27T19:43:50.994Z,16.15
2019-04-27T19:46:24.992Z,16.73
2019-04-27T19:48:59.196Z,16.25
2019-04-27T19:51:32.000Z,17.05
2019-04-27T19:54:05.472Z,18.17
2019-04-27T19:56:39.139Z,17.02
2019-04-27T19:59:13.626Z,17.35
2019-04-27T20:01:50.553Z,17.92
2019-04-27T20:04:25.708Z,16.97
2019-04-27T20:06:58.039Z,15.88
2019-04-27T20:09:33.347Z,15.48
2019-04-27T20:12:08.238Z,16.70
2019-04-27T20:14:42.363Z,16.55
2019-04-27T20:17:16.466Z,16.50
2019-04-27T20:19:51.619Z,15.68
2019-04-27T20:22:27.602Z,15.63
2019-04-27T20:25:01.823Z,16.48
2019-04-27T20:27:46.152Z,15.43
2019-04-27T20:30:15.270Z,15.78
2019-04-27T20:32:52.187Z,16.25
2019-04-27T20:35:28.830Z,15.72
2019-04-27T20:38:05.065Z,15.93
2019-04-27T20:40:41.573Z,16.30
2019-04-27T20:43:15.360Z,16.02
2019-04-27T20:45:51.549Z,20.30
2019-04-27T20:48:24.732Z,18.70
2019-04-27T20:50:58.997Z,19.05
2019-04-27T20:53:33.769Z,16.10
2019-04-27T20:56:07.064Z,16.07
2019-04-27T20:58:41.125Z,18.05
2019-04-27T21:01:14.025Z,17.12
2019-04-27T21:03:51.078Z,16.73
2019-04-27T21:06:25.430Z,16.90
2019-04-27T21:09:00.858Z,15.58
2019-04-27T21:11:39.542Z,20.50
2019-04-27T21:14:12.544Z,17.27
2019-04-27T21:16:46.338Z,15.98
2019-04-27T21:19:18.731Z,17.00
2019-04-27T21:21:52.295Z,15.23
2019-04-27T21:24:24.285Z,18.05
2019-04-27T21:26:56.965Z,17.05
2019-04-27T21:29:31.194Z,19.48
2019-04-27T21:32:07.858Z,16.67
2019-04-27T21:34:41.302Z,15.50
2019-04-27T21:37:15.784Z,17.42
2019-04-27T21:39:51.421Z,15.23
2019-04-27T21:42:24.139Z,17.05
2019-04-27T21:44:56.804Z,15.88
2019-04-27T21:47:29.809Z,16.35
2019-04-27T21:50:03.501Z,13.80
2019-04-27T21:52:41.703Z,15.98
2019-04-27T21:55:16.208Z,21.42
2019-04-27T21:57:51.182Z,15.85
2019-04-27T22:00:26.645Z,16.00
2019-04-27T22:03:01.193Z,15.20
2019-04-27T22:05:35.278Z,17.75
2019-04-27T22:08:08.519Z,13.70
2019-04-27T22:10:41.405Z,15.20
2019-04-27T22:13:15.520Z,15.53
2019-04-27T22:15:48.342Z,16.65
2019-04-27T22:18:21.309Z,18.00
2019-04-27T22:20:54.073Z,16.97
